createdAt,value
2022-12-26T00:00:32.324Z,97271.16
2022-12-26T00:02:59.001Z,97257.66
2022-12-26T00:05:25.657Z,97237.06
2022-12-26T00:07:52.061Z,97262.59
2022-12-26T00:10:18.492Z,97263.84
2022-12-26T00:12:44.897Z,97264.97
2022-12-26T00:15:11.465Z,97248.53
2022-12-26T00:17:37.981Z,97260.88
2022-12-26T00:20:05.014Z,97271.97
2022-12-26T00:22:32.350Z,97279.06
2022-12-26T00:24:59.096Z,97261.94
2022-12-26T00:27:25.499Z,97268.97
2022-12-26T00:29:51.937Z,97258.84
2022-12-26T00:32:18.295Z,97263.31
2022-12-26T00:34:44.768Z,97262.84
2022-12-26T00:37:11.438Z,97256.00
2022-12-26T00:39:37.982Z,97258.47
2022-12-26T00:42:04.392Z,97258.66
2022-12-26T00:44:30.916Z,97261.28
2022-12-26T00:46:57.485Z,97256.94
2022-12-26T00:49:23.976Z,97256.81
2022-12-26T00:51:50.373Z,97255.28
2022-12-26T00:54:16.916Z,97265.41
2022-12-26T00:56:43.291Z,97283.75
2022-12-26T00:59:09.711Z,97267.41
2022-12-26T01:01:36.200Z,97278.63
2022-12-26T01:04:02.722Z,97260.41
2022-12-26T01:06:29.109Z,97268.59
2022-12-26T01:08:55.572Z,97271.81
2022-12-26T01:11:40.659Z,97266.31
2022-12-26T01:14:16.544Z,97261.28
2022-12-26T01:16:45.460Z,97268.59
2022-12-26T01:19:13.276Z,97263.66
2022-12-26T01:21:40.509Z,97273.78
2022-12-26T01:24:07.486Z,97282.28
2022-12-26T01:26:33.883Z,97287.41
2022-12-26T01:29:00.429Z,97268.59
2022-12-26T01:31:26.894Z,97273.69
2022-12-26T01:33:53.343Z,97266.69
2022-12-26T01:36:19.825Z,97283.84
2022-12-26T01:38:46.405Z,97265.50
2022-12-26T01:41:17.452Z,97284.47
2022-12-26T01:43:53.087Z,97293.59
2022-12-26T01:46:24.409Z,97305.28
2022-12-26T01:48:51.545Z,97305.19
2022-12-26T01:51:22.010Z,97315.66
2022-12-26T01:53:54.418Z,97323.53
2022-12-26T01:56:36.635Z,97312.38
2022-12-26T01:59:09.398Z,97338.00
2022-12-26T02:01:40.061Z,97329.09
2022-12-26T02:04:31.793Z,97336.66
2022-12-26T02:06:58.843Z,97321.59
2022-12-26T02:09:25.521Z,97308.00
2022-12-26T02:12:34.407Z,97310.94
2022-12-26T02:14:50.162Z,97313.94
2022-12-26T02:17:17.075Z,97319.84
2022-12-26T02:19:51.238Z,97320.22
2022-12-26T02:22:47.297Z,97329.72
2022-12-26T02:25:31.988Z,97324.59
2022-12-26T02:28:37.605Z,97328.53
2022-12-26T02:31:16.833Z,97338.38
2022-12-26T02:34:01.060Z,97337.19
2022-12-26T02:36:48.448Z,97342.75
2022-12-26T02:39:46.763Z,97342.03
2022-12-26T02:42:58.053Z,97350.34
2022-12-26T02:45:59.837Z,97346.31
2022-12-26T02:48:52.588Z,97360.56
2022-12-26T02:51:47.006Z,97351.97
2022-12-26T02:55:13.229Z,97351.50
2022-12-26T02:58:09.645Z,97344.97
2022-12-26T03:00:59.172Z,97348.41
2022-12-26T03:03:48.915Z,97347.78
2022-12-26T03:06:41.820Z,97351.44
2022-12-26T03:09:32.369Z,97344.13
2022-12-26T03:12:26.542Z,97345.41
2022-12-26T03:14:58.399Z,97347.97
2022-12-26T03:17:41.054Z,97354.97
2022-12-26T03:20:16.244Z,97363.19
2022-12-26T03:22:51.430Z,97373.41
2022-12-26T03:25:43.177Z,97365.28
2022-12-26T03:28:09.887Z,97372.75
2022-12-26T03:30:49.490Z,97384.75
2022-12-26T03:33:39.168Z,97378.97
2022-12-26T03:36:07.056Z,97394.41
2022-12-26T03:39:07.612Z,97388.59
2022-12-26T03:42:06.592Z,97391.28
2022-12-26T03:45:16.567Z,97383.50
2022-12-26T03:48:32.995Z,97393.75
2022-12-26T03:51:29.047Z,97394.16
2022-12-26T03:54:54.124Z,97389.16
2022-12-26T03:57:40.639Z,97395.91
2022-12-26T04:00:29.752Z,97383.03
2022-12-26T04:03:21.581Z,97389.88
2022-12-26T04:06:08.889Z,97382.94
2022-12-26T04:09:01.338Z,97390.34
2022-12-26T04:11:47.121Z,97397.94
2022-12-26T04:14:55.131Z,97390.63
2022-12-26T04:17:40.119Z,97404.75
2022-12-26T04:20:35.228Z,97409.97
2022-12-26T04:23:28.577Z,97415.34
2022-12-26T04:26:20.340Z,97417.44
2022-12-26T04:29:05.146Z,97407.31
2022-12-26T04:31:57.681Z,97406.34
2022-12-26T04:34:55.164Z,97430.00
2022-12-26T04:37:44.217Z,97432.44
2022-12-26T04:40:36.673Z,97450.56
2022-12-26T04:43:49.261Z,97437.25
2022-12-26T04:46:09.734Z,97448.34
2022-12-26T04:49:02.139Z,97443.88
2022-12-26T04:51:28.577Z,97430.63
2022-12-26T04:53:55.037Z,97425.44
2022-12-26T04:56:24.633Z,97425.06
2022-12-26T04:58:51.004Z,97411.38
2022-12-26T05:01:36.270Z,97409.72
2022-12-26T05:04:21.671Z,97417.28
2022-12-26T05:07:06.893Z,97405.03
2022-12-26T05:09:36.640Z,97398.50
2022-12-26T05:12:05.947Z,97401.94
2022-12-26T05:14:35.725Z,97422.25
2022-12-26T05:17:28.310Z,97422.25
2022-12-26T05:20:13.645Z,97417.84
2022-12-26T05:23:00.655Z,97433.19
2022-12-26T05:25:49.444Z,97427.19
2022-12-26T05:28:36.291Z,97434.56
2022-12-26T05:31:03.780Z,97439.50
2022-12-26T05:33:49.117Z,97439.03
2022-12-26T05:36:17.373Z,97443.34
2022-12-26T05:38:43.797Z,97442.69
2022-12-26T05:41:10.254Z,97443.34
2022-12-26T05:43:36.742Z,97471.00
2022-12-26T05:46:03.209Z,97477.22
2022-12-26T05:48:29.700Z,97473.47
2022-12-26T05:51:00.401Z,97487.06
2022-12-26T05:53:27.499Z,97472.94
2022-12-26T05:55:54.070Z,97471.56
2022-12-26T05:58:20.863Z,97469.91
2022-12-26T06:00:47.621Z,97467.91
2022-12-26T06:03:14.153Z,97460.97
2022-12-26T06:05:40.744Z,97459.41
2022-12-26T06:08:07.134Z,97467.63
2022-12-26T06:10:33.579Z,97462.06
2022-12-26T06:13:00.150Z,97481.94
2022-12-26T06:15:26.652Z,97484.34
2022-12-26T06:17:54.729Z,97474.66
2022-12-26T06:20:21.107Z,97487.44
2022-12-26T06:22:47.477Z,97470.00
2022-12-26T06:25:13.857Z,97454.09
2022-12-26T06:27:42.769Z,97480.69
2022-12-26T06:30:09.613Z,97472.81
2022-12-26T06:32:35.990Z,97459.88
2022-12-26T06:35:02.463Z,97478.31
2022-12-26T06:37:28.913Z,97466.44
2022-12-26T06:39:55.308Z,97452.56
2022-12-26T06:42:22.588Z,97470.09
2022-12-26T06:44:48.991Z,97492.47
2022-12-26T06:47:15.441Z,97499.41
2022-12-26T06:49:42.493Z,97503.97
2022-12-26T06:52:08.887Z,97514.13
2022-12-26T06:54:35.348Z,97503.88
2022-12-26T06:57:01.755Z,97501.50
2022-12-26T06:59:28.147Z,97499.84
2022-12-26T07:01:54.646Z,97501.03
2022-12-26T07:04:21.098Z,97510.00
2022-12-26T07:06:47.511Z,97513.38
2022-12-26T07:09:16.966Z,97521.41
2022-12-26T07:11:46.783Z,97522.84
2022-12-26T07:14:13.683Z,97522.59
2022-12-26T07:16:41.940Z,97540.47
2022-12-26T07:19:10.968Z,97543.06
2022-12-26T07:21:40.796Z,97542.22
2022-12-26T07:24:14.260Z,97549.53
2022-12-26T07:26:40.640Z,97552.47
2022-12-26T07:29:07.046Z,97540.13
2022-12-26T07:31:33.449Z,97540.22
2022-12-26T07:33:59.895Z,97535.56
2022-12-26T07:36:27.059Z,97527.16
2022-12-26T07:38:55.160Z,97525.41
2022-12-26T07:41:40.544Z,97521.41
2022-12-26T07:44:07.243Z,97527.78
2022-12-26T07:46:34.292Z,97532.47
2022-12-26T07:49:00.813Z,97533.38
2022-12-26T07:51:27.495Z,97527.25
2022-12-26T07:53:55.698Z,97540.94
2022-12-26T07:56:22.147Z,97529.59
2022-12-26T07:58:49.718Z,97524.50
2022-12-26T08:01:16.557Z,97517.00
2022-12-26T08:03:43.198Z,97510.03
2022-12-26T08:06:11.220Z,97481.72
2022-12-26T08:08:38.292Z,97466.66
2022-12-26T08:11:07.457Z,97433.00
2022-12-26T08:13:35.169Z,97469.22
2022-12-26T08:16:06.733Z,97459.41
2022-12-26T08:18:33.289Z,97456.28
2022-12-26T08:21:00.700Z,97459.19
2022-12-26T08:23:27.895Z,97451.63
2022-12-26T08:25:54.472Z,97437.75
2022-12-26T08:28:20.998Z,97441.31
2022-12-26T08:30:47.545Z,97437.84
2022-12-26T08:33:13.936Z,97445.63
2022-12-26T08:35:40.523Z,97463.03
2022-12-26T08:38:08.132Z,97457.19
2022-12-26T08:40:43.642Z,97465.31
2022-12-26T08:43:32.134Z,97467.69
2022-12-26T08:46:02.813Z,97460.31
2022-12-26T08:48:30.060Z,97458.09
2022-12-26T08:50:58.297Z,97470.69
2022-12-26T08:53:25.062Z,97475.91
2022-12-26T08:55:51.632Z,97480.28
2022-12-26T08:58:18.124Z,97483.22
2022-12-26T09:00:44.587Z,97487.13
2022-12-26T09:03:11.582Z,97491.78
2022-12-26T09:05:38.118Z,97496.72
2022-12-26T09:08:04.926Z,97511.63
2022-12-26T09:10:31.392Z,97507.69
2022-12-26T09:12:57.825Z,97506.50
2022-12-26T09:15:24.227Z,97517.19
2022-12-26T09:17:50.636Z,97507.25
2022-12-26T09:20:17.235Z,97515.25
2022-12-26T09:22:52.822Z,97511.91
2022-12-26T09:25:20.964Z,97508.50
2022-12-26T09:27:50.911Z,97514.97
2022-12-26T09:30:20.904Z,97556.19
2022-12-26T09:32:47.845Z,97566.31
2022-12-26T09:35:14.432Z,97587.84
2022-12-26T09:37:40.809Z,97585.22
2022-12-26T09:40:19.359Z,97583.16
2022-12-26T09:43:08.264Z,97581.56
2022-12-26T09:45:52.147Z,97593.47
2022-12-26T09:48:31.955Z,97600.75
2022-12-26T09:50:58.526Z,97601.94
2022-12-26T09:53:35.049Z,97592.53
2022-12-26T09:56:13.975Z,97586.28
2022-12-26T09:58:55.074Z,97571.09
2022-12-26T10:01:26.975Z,97557.41
2022-12-26T10:03:58.579Z,97542.56
2022-12-26T10:06:38.966Z,97537.44
2022-12-26T10:09:23.571Z,97518.31
2022-12-26T10:12:04.271Z,97504.13
2022-12-26T10:15:07.345Z,97538.28
2022-12-26T10:17:44.538Z,97529.56
2022-12-26T10:20:16.723Z,97521.00
2022-12-26T10:22:57.921Z,97494.09
2022-12-26T10:25:36.470Z,97469.56
2022-12-26T10:28:06.049Z,97455.88
2022-12-26T10:30:41.423Z,97454.38
2022-12-26T10:33:29.629Z,97446.50
2022-12-26T10:35:56.060Z,97431.63
2022-12-26T10:38:42.625Z,97419.44
2022-12-26T10:41:20.235Z,97411.38
2022-12-26T10:43:46.700Z,97418.13
2022-12-26T10:46:30.036Z,97388.78
2022-12-26T10:48:56.961Z,97382.84
2022-12-26T10:51:28.538Z,97384.81
2022-12-26T10:53:55.138Z,97371.78
2022-12-26T10:56:25.158Z,97341.09
2022-12-26T10:59:04.022Z,97293.78
2022-12-26T11:01:36.818Z,97265.88
2022-12-26T11:04:07.253Z,97283.19
2022-12-26T11:06:38.119Z,97302.94
2022-12-26T11:09:06.609Z,97296.28
2022-12-26T11:11:47.772Z,97294.53
2022-12-26T11:14:43.048Z,97312.81
2022-12-26T11:17:24.113Z,97330.94
2022-12-26T11:20:21.764Z,97333.00
2022-12-26T11:22:52.050Z,97332.53
2022-12-26T11:25:25.810Z,97350.31
2022-12-26T11:27:52.065Z,97354.47
2022-12-26T11:30:28.415Z,97367.50
2022-12-26T11:33:16.178Z,97359.06
2022-12-26T11:35:53.737Z,97356.59
2022-12-26T11:38:44.196Z,97365.50
2022-12-26T11:41:32.147Z,97369.13
2022-12-26T11:44:13.158Z,97362.16
2022-12-26T11:46:51.553Z,97361.88
2022-12-26T11:49:33.616Z,97364.47
2022-12-26T11:52:24.411Z,97363.78
2022-12-26T11:54:51.437Z,97356.44
2022-12-26T11:57:24.789Z,97356.44
2022-12-26T11:59:53.169Z,97359.91
2022-12-26T12:02:28.213Z,97352.28
2022-12-26T12:05:00.257Z,97357.28
2022-12-26T12:07:47.938Z,97344.53
2022-12-26T12:10:54.230Z,97336.22
2022-12-26T12:13:30.747Z,97341.44
2022-12-26T12:16:15.162Z,97335.81
2022-12-26T12:19:03.517Z,97338.09
2022-12-26T12:21:45.344Z,97324.63
2022-12-26T12:24:30.904Z,97344.78
2022-12-26T12:27:16.234Z,97352.19
2022-12-26T12:30:13.413Z,97344.09
2022-12-26T12:33:17.354Z,97350.78
2022-12-26T12:35:56.755Z,97348.34
2022-12-26T12:38:32.093Z,97374.78
2022-12-26T12:41:23.483Z,97361.34
2022-12-26T12:44:08.669Z,97369.00
2022-12-26T12:47:14.548Z,97376.59
2022-12-26T12:49:50.840Z,97378.22
2022-12-26T12:52:39.122Z,97388.00
2022-12-26T12:55:36.720Z,97385.78
2022-12-26T12:58:38.010Z,97390.28
2022-12-26T13:01:13.692Z,97375.69
2022-12-26T13:04:08.525Z,97399.41
2022-12-26T13:06:42.857Z,97420.13
2022-12-26T13:09:15.032Z,97411.66
2022-12-26T13:12:03.806Z,97420.13
2022-12-26T13:14:36.134Z,97429.97
2022-12-26T13:17:08.548Z,97452.59
2022-12-26T13:19:42.848Z,97458.38
2022-12-26T13:22:16.794Z,97462.47
2022-12-26T13:24:46.909Z,97442.91
2022-12-26T13:27:22.343Z,97470.84
2022-12-26T13:29:49.604Z,97463.94
2022-12-26T13:32:31.231Z,97468.47
2022-12-26T13:35:00.842Z,97478.00
2022-12-26T13:37:39.429Z,97473.41
2022-12-26T13:40:12.030Z,97487.19
2022-12-26T13:42:59.354Z,97495.50
2022-12-26T13:45:37.730Z,97488.19
2022-12-26T13:48:16.242Z,97496.31
2022-12-26T13:50:55.130Z,97504.81
2022-12-26T13:53:24.655Z,97517.19
2022-12-26T13:55:57.087Z,97535.72
2022-12-26T13:58:31.867Z,97533.44
2022-12-26T14:01:10.479Z,97529.06
2022-12-26T14:04:01.702Z,97546.94
2022-12-26T14:06:44.715Z,97559.94
2022-12-26T14:09:32.596Z,97551.66
2022-12-26T14:12:15.535Z,97560.63
2022-12-26T14:15:15.674Z,97560.63
2022-12-26T14:18:07.915Z,97561.94
2022-12-26T14:21:00.757Z,97565.94
2022-12-26T14:23:56.304Z,97581.16
2022-12-26T14:26:39.764Z,97587.47
2022-12-26T14:29:31.716Z,97592.56
2022-12-26T14:32:10.206Z,97589.09
2022-12-26T14:35:06.677Z,97590.16
2022-12-26T14:37:58.757Z,97600.03
2022-12-26T14:40:34.713Z,97606.81
2022-12-26T14:43:10.411Z,97613.63
2022-12-26T14:45:38.443Z,97608.72
2022-12-26T14:48:16.721Z,97614.34
2022-12-26T14:50:46.249Z,97636.88
2022-12-26T14:53:27.256Z,97625.94
2022-12-26T14:56:01.468Z,97633.22
2022-12-26T14:58:31.053Z,97633.22
2022-12-26T15:01:18.296Z,97626.16
2022-12-26T15:04:05.298Z,97637.59
2022-12-26T15:06:50.360Z,97639.41
2022-12-26T15:09:19.688Z,97630.34
2022-12-26T15:12:04.538Z,97626.03
2022-12-26T15:15:08.486Z,97630.84
2022-12-26T15:18:06.000Z,97619.97
2022-12-26T15:20:56.979Z,97627.88
2022-12-26T15:23:58.448Z,97625.69
2022-12-26T15:26:36.663Z,97635.63
2022-12-26T15:29:29.826Z,97625.75
2022-12-26T15:32:12.024Z,97620.88
2022-12-26T15:34:56.453Z,97622.84
2022-12-26T15:37:53.747Z,97605.66
2022-12-26T15:40:24.211Z,97601.94
2022-12-26T15:43:09.332Z,97584.97
2022-12-26T15:45:54.829Z,97591.06
2022-12-26T15:48:58.714Z,97599.00
2022-12-26T15:52:03.691Z,97589.03
2022-12-26T15:54:59.837Z,97595.03
2022-12-26T15:57:34.193Z,97583.94
2022-12-26T16:00:14.993Z,97577.84
2022-12-26T16:03:09.603Z,97585.63
2022-12-26T16:05:47.609Z,97593.22
2022-12-26T16:08:42.936Z,97598.19
2022-12-26T16:11:17.821Z,97605.31
2022-12-26T16:13:56.767Z,97605.31
2022-12-26T16:16:26.463Z,97603.50
2022-12-26T16:18:53.046Z,97612.59
2022-12-26T16:21:41.049Z,97613.94
2022-12-26T16:24:12.172Z,97611.31
2022-12-26T16:26:45.831Z,97625.16
2022-12-26T16:29:15.345Z,97634.75
2022-12-26T16:31:41.988Z,97638.34
2022-12-26T16:34:19.517Z,97651.25
2022-12-26T16:36:48.865Z,97661.16
2022-12-26T16:39:22.155Z,97674.50
2022-12-26T16:42:05.438Z,97679.97
2022-12-26T16:44:36.768Z,97686.22
2022-12-26T16:47:13.077Z,97696.47
2022-12-26T16:49:43.339Z,97696.47
2022-12-26T16:52:31.375Z,97712.47
2022-12-26T16:54:57.817Z,97722.53
2022-12-26T16:57:24.440Z,97730.13
2022-12-26T16:59:55.030Z,97762.66
2022-12-26T17:02:29.356Z,97788.72
2022-12-26T17:05:02.170Z,97802.00
2022-12-26T17:07:33.818Z,97812.56
2022-12-26T17:10:01.256Z,97829.91
2022-12-26T17:12:35.095Z,97821.03
2022-12-26T17:15:03.107Z,97819.06
2022-12-26T17:17:31.862Z,97796.25
2022-12-26T17:20:24.595Z,97785.03
2022-12-26T17:22:59.111Z,97785.13
2022-12-26T17:25:29.675Z,97787.31
2022-12-26T17:28:12.349Z,97764.09
2022-12-26T17:30:41.448Z,97747.63
2022-12-26T17:33:18.073Z,97713.69
2022-12-26T17:36:45.014Z,97704.09
2022-12-26T17:38:36.202Z,97724.41
2022-12-26T17:41:05.484Z,97755.78
2022-12-26T17:43:35.890Z,97756.06
2022-12-26T17:46:03.705Z,97754.81
2022-12-26T17:48:30.988Z,97758.25
2022-12-26T17:51:04.662Z,97779.31
2022-12-26T17:53:35.341Z,97775.22
2022-12-26T17:56:04.733Z,97780.66
2022-12-26T17:58:31.483Z,97782.94
2022-12-26T18:00:59.174Z,97762.41
2022-12-26T18:03:25.769Z,97767.97
2022-12-26T18:05:53.469Z,97778.81
2022-12-26T18:08:29.680Z,97784.97
2022-12-26T18:10:56.752Z,97771.88
2022-12-26T18:13:24.112Z,97761.13
2022-12-26T18:15:52.498Z,97768.41
2022-12-26T18:18:24.093Z,97758.94
2022-12-26T18:20:50.931Z,97761.66
2022-12-26T18:23:17.872Z,97764.84
2022-12-26T18:25:54.188Z,97766.47
2022-12-26T18:28:21.553Z,97757.91
2022-12-26T18:30:48.829Z,97750.00
2022-12-26T18:33:15.227Z,97737.81
2022-12-26T18:35:44.037Z,97724.28
2022-12-26T18:38:15.774Z,97723.50
2022-12-26T18:40:48.799Z,97727.22
2022-12-26T18:43:15.302Z,97711.13
2022-12-26T18:45:42.421Z,97717.53
2022-12-26T18:48:13.406Z,97712.25
2022-12-26T18:50:39.925Z,97705.00
2022-12-26T18:53:06.289Z,97692.97
2022-12-26T18:55:32.710Z,97692.63
2022-12-26T18:57:59.268Z,97678.63
2022-12-26T19:00:26.297Z,97667.56
2022-12-26T19:02:54.073Z,97648.19
2022-12-26T19:05:26.075Z,97643.94
2022-12-26T19:07:53.336Z,97623.50
2022-12-26T19:10:23.590Z,97637.25
2022-12-26T19:12:51.069Z,97626.72
2022-12-26T19:15:17.911Z,97625.59
2022-12-26T19:17:44.627Z,97620.38
2022-12-26T19:20:22.944Z,97628.28
2022-12-26T19:22:50.487Z,97651.97
2022-12-26T19:25:19.335Z,97632.94
2022-12-26T19:27:46.568Z,97659.13
2022-12-26T19:30:14.497Z,97692.28
2022-12-26T19:32:42.608Z,97690.78
2022-12-26T19:35:10.151Z,97706.34
2022-12-26T19:37:36.536Z,97711.13
2022-12-26T19:40:03.952Z,97714.72
2022-12-26T19:42:33.687Z,97718.16
2022-12-26T19:45:01.024Z,97716.69
2022-12-26T19:47:27.421Z,97705.59
2022-12-26T19:49:53.856Z,97721.34
2022-12-26T19:52:20.291Z,97709.16
2022-12-26T19:54:46.727Z,97719.56
2022-12-26T19:57:13.161Z,97713.44
2022-12-26T19:59:39.622Z,97709.34
2022-12-26T20:02:06.148Z,97715.50
2022-12-26T20:04:32.818Z,97717.13
2022-12-26T20:07:00.445Z,97718.94
2022-12-26T20:09:27.229Z,97729.53
2022-12-26T20:11:54.520Z,97725.19
2022-12-26T20:14:22.685Z,97725.47
2022-12-26T20:17:08.827Z,97750.34
2022-12-26T20:19:36.612Z,97758.34
2022-12-26T20:22:04.273Z,97767.78
2022-12-26T20:24:30.833Z,97777.63
2022-12-26T20:26:57.356Z,97792.97
2022-12-26T20:29:23.776Z,97809.59
2022-12-26T20:31:50.228Z,97822.31
2022-12-26T20:34:17.043Z,97845.28
2022-12-26T20:36:43.534Z,97852.75
2022-12-26T20:39:15.175Z,97864.63
2022-12-26T20:41:41.613Z,97886.59
2022-12-26T20:44:11.882Z,97899.16
2022-12-26T20:46:39.902Z,97911.63
2022-12-26T20:49:06.298Z,97931.94
2022-12-26T20:51:37.906Z,97931.25
2022-12-26T20:54:07.081Z,97949.50
2022-12-26T20:56:34.399Z,97953.06
2022-12-26T20:59:00.906Z,97943.00
2022-12-26T21:01:28.225Z,97953.91
2022-12-26T21:03:56.455Z,97960.22
2022-12-26T21:06:27.274Z,97967.44
2022-12-26T21:08:54.473Z,97980.44
2022-12-26T21:11:24.718Z,97985.41
2022-12-26T21:13:54.431Z,97998.94
2022-12-26T21:16:28.189Z,98010.53
2022-12-26T21:18:54.992Z,98014.28
2022-12-26T21:21:24.473Z,98038.97
2022-12-26T21:23:56.606Z,98059.66
2022-12-26T21:26:24.279Z,98075.22
2022-12-26T21:28:55.961Z,98087.41
2022-12-26T21:31:22.426Z,98086.47
2022-12-26T21:33:48.844Z,98104.16
2022-12-26T21:36:15.366Z,98118.22
2022-12-26T21:38:42.278Z,98144.56
2022-12-26T21:41:12.283Z,98157.97
2022-12-26T21:43:38.651Z,98170.78
2022-12-26T21:46:08.679Z,98164.22
2022-12-26T21:48:35.778Z,98201.53
2022-12-26T21:51:02.321Z,98209.28
2022-12-26T21:53:28.771Z,98228.63
2022-12-26T21:55:55.254Z,98228.53
2022-12-26T21:58:21.811Z,98233.59
2022-12-26T22:00:48.445Z,98243.72
2022-12-26T22:03:33.497Z,98253.44
2022-12-26T22:05:59.907Z,98266.69
2022-12-26T22:08:27.234Z,98283.28
2022-12-26T22:11:11.984Z,98282.34
2022-12-26T22:13:44.399Z,98302.38
2022-12-26T22:16:12.543Z,98319.72
2022-12-26T22:18:41.702Z,98339.88
2022-12-26T22:21:14.062Z,98358.03
2022-12-26T22:23:41.608Z,98385.44
2022-12-26T22:26:10.847Z,98395.91
2022-12-26T22:28:38.102Z,98409.03
2022-12-26T22:31:04.738Z,98417.47
2022-12-26T22:33:31.355Z,98420.94
2022-12-26T22:36:08.503Z,98442.13
2022-12-26T22:38:37.087Z,98431.53
2022-12-26T22:41:04.722Z,98455.31
2022-12-26T22:43:31.968Z,98455.78
2022-12-26T22:45:58.567Z,98475.88
2022-12-26T22:48:25.210Z,98491.13
2022-12-26T22:50:54.836Z,98502.16
2022-12-26T22:53:25.854Z,98503.44
2022-12-26T22:55:57.619Z,98513.06
2022-12-26T22:58:24.076Z,98524.47
2022-12-26T23:00:50.764Z,98527.59
2022-12-26T23:03:17.272Z,98543.78
2022-12-26T23:05:45.038Z,98552.13
2022-12-26T23:08:17.816Z,98561.16
2022-12-26T23:10:45.361Z,98563.91
2022-12-26T23:13:13.197Z,98572.72
2022-12-26T23:15:58.457Z,98585.19
2022-12-26T23:18:52.662Z,98597.19
2022-12-26T23:21:39.276Z,98602.47
2022-12-26T23:24:08.067Z,98600.78
2022-12-26T23:26:34.488Z,98609.38
2022-12-26T23:29:19.660Z,98620.25
2022-12-26T23:31:46.132Z,98616.91
2022-12-26T23:34:12.606Z,98635.63
2022-12-26T23:36:39.048Z,98636.56
2022-12-26T23:39:05.444Z,98637.50
2022-12-26T23:41:31.811Z,98637.00
2022-12-26T23:43:58.209Z,98636.88
2022-12-26T23:46:24.645Z,98659.78
2022-12-26T23:48:51.106Z,98655.38
2022-12-26T23:51:18.040Z,98662.25
2022-12-26T23:53:46.501Z,98646.34
2022-12-26T23:56:12.962Z,98676.88
2022-12-26T23:58:42.375Z,98670.59
